createdAt,value
2022-08-14T00:02:05.424Z,13.90
2022-08-14T00:07:11.359Z,12.30
2022-08-14T00:12:23.949Z,12.40
2022-08-14T00:17:28.270Z,9.00
2022-08-14T00:22:56.390Z,10.30
2022-08-14T00:27:56.179Z,9.10
2022-08-14T00:33:16.268Z,9.80
2022-08-14T00:38:19.838Z,10.70
2022-08-14T00:43:21.966Z,9.60
2022-08-14T00:48:34.633Z,9.70
2022-08-14T00:53:42.885Z,9.20
2022-08-14T00:58:48.515Z,11.40
2022-08-14T01:03:53.423Z,9.10
2022-08-14T01:08:59.093Z,10.40
2022-08-14T01:14:04.736Z,17.00
2022-08-14T01:19:39.104Z,12.00
2022-08-14T01:24:44.150Z,11.10
2022-08-14T01:30:03.288Z,12.10
2022-08-14T01:35:19.978Z,12.50
2022-08-14T01:40:36.184Z,13.30
2022-08-14T01:45:48.992Z,12.40
2022-08-14T01:50:51.391Z,12.60
2022-08-14T01:55:57.250Z,12.10
2022-08-14T02:00:59.481Z,12.40
2022-08-14T02:06:03.860Z,13.00
2022-08-14T02:11:25.663Z,12.40
2022-08-14T02:16:32.428Z,13.10
2022-08-14T02:21:43.752Z,13.60
2022-08-14T02:28:18.478Z,13.40
2022-08-14T02:32:30.046Z,13.60
2022-08-14T02:37:45.671Z,14.80
2022-08-14T02:42:54.793Z,12.90
2022-08-14T02:48:01.848Z,14.60
2022-08-14T02:53:04.659Z,14.10
2022-08-14T02:58:10.471Z,13.10
2022-08-14T03:03:31.709Z,15.30
2022-08-14T03:08:39.387Z,14.50
2022-08-14T03:13:51.489Z,12.80
2022-08-14T03:19:00.252Z,12.80
2022-08-14T03:24:07.368Z,13.40
2022-08-14T03:29:24.613Z,13.10
2022-08-14T03:34:52.608Z,14.00
2022-08-14T03:39:58.082Z,15.20
2022-08-14T03:45:26.801Z,14.80
2022-08-14T03:50:27.691Z,13.20
2022-08-14T03:55:33.928Z,14.40
2022-08-14T04:00:47.886Z,15.00
2022-08-14T04:05:50.400Z,16.20
2022-08-14T04:10:54.429Z,14.90
2022-08-14T04:16:01.327Z,14.70
2022-08-14T04:21:04.262Z,15.60
2022-08-14T04:26:14.312Z,15.70
2022-08-14T04:32:59.194Z,15.00
2022-08-14T04:36:59.599Z,14.40
2022-08-14T04:42:20.322Z,14.00
2022-08-14T04:47:46.366Z,15.70
2022-08-14T04:52:48.992Z,16.20
2022-08-14T04:57:56.814Z,15.70
2022-08-14T05:03:03.014Z,13.30
2022-08-14T05:08:31.988Z,12.30
2022-08-14T05:14:06.493Z,14.20
2022-08-14T05:19:17.849Z,12.10
2022-08-14T05:24:26.277Z,13.60
2022-08-14T05:34:32.348Z,13.80
2022-08-14T05:39:35.473Z,12.20
2022-08-14T05:44:38.776Z,12.40
2022-08-14T05:49:40.657Z,11.70
2022-08-14T05:54:43.095Z,13.40
2022-08-14T05:59:46.527Z,14.70
2022-08-14T06:04:49.410Z,15.40
2022-08-14T06:09:52.484Z,16.70
2022-08-14T06:14:54.844Z,15.70
2022-08-14T06:20:02.865Z,15.40
2022-08-14T06:25:08.077Z,13.70
2022-08-14T06:30:16.002Z,14.80
2022-08-14T06:35:20.119Z,14.30
2022-08-14T06:40:42.998Z,15.50
2022-08-14T06:45:54.013Z,14.30
2022-08-14T06:50:57.914Z,14.50
2022-08-14T06:56:02.040Z,14.40
2022-08-14T07:01:27.813Z,14.80
2022-08-14T07:06:46.863Z,15.50
2022-08-14T07:11:51.256Z,15.20
2022-08-14T07:16:53.319Z,12.90
2022-08-14T07:21:56.332Z,12.30
2022-08-14T07:26:59.034Z,12.80
2022-08-14T07:32:01.765Z,13.10
2022-08-14T07:37:06.100Z,11.00
2022-08-14T07:42:08.677Z,10.40
2022-08-14T07:47:11.888Z,21.50
2022-08-14T07:52:14.057Z,11.70
2022-08-14T07:57:25.147Z,12.80
2022-08-14T08:02:31.148Z,10.70
2022-08-14T08:07:36.243Z,14.90
2022-08-14T08:12:42.423Z,10.80
2022-08-14T08:17:53.411Z,9.10
2022-08-14T08:28:19.812Z,10.20
2022-08-14T08:33:32.073Z,8.90
2022-08-14T08:39:14.533Z,10.30
2022-08-14T08:44:05.529Z,11.30
2022-08-14T08:49:10.251Z,10.10
2022-08-14T08:54:18.487Z,10.20
2022-08-14T08:59:31.417Z,10.40
2022-08-14T09:04:53.480Z,9.90
2022-08-14T09:09:59.477Z,10.30
2022-08-14T09:15:11.478Z,8.20
2022-08-14T09:20:25.744Z,6.80
2022-08-14T09:26:00.703Z,7.80
2022-08-14T09:31:07.371Z,8.90
2022-08-14T09:36:57.370Z,9.00
2022-08-14T09:42:49.842Z,11.00
2022-08-14T09:47:55.526Z,9.40
2022-08-14T09:53:17.988Z,9.00
2022-08-14T09:58:24.663Z,9.20
2022-08-14T10:03:36.179Z,9.00
2022-08-14T10:08:51.041Z,10.40
2022-08-14T10:13:58.384Z,9.40
2022-08-14T10:19:23.730Z,11.70
2022-08-14T10:24:36.136Z,10.00
2022-08-14T10:29:46.373Z,11.60
2022-08-14T10:34:52.843Z,13.60
2022-08-14T10:40:05.579Z,10.20
2022-08-14T10:45:25.619Z,7.80
2022-08-14T10:50:33.272Z,8.50
2022-08-14T10:55:44.904Z,7.10
2022-08-14T11:00:57.125Z,7.20
2022-08-14T11:11:16.118Z,6.80
2022-08-14T11:16:28.751Z,11.70
2022-08-14T11:21:36.221Z,9.50
2022-08-14T11:26:44.360Z,10.90
2022-08-14T11:31:51.838Z,7.60
2022-08-14T11:37:17.911Z,6.20
2022-08-14T11:42:58.784Z,5.40
2022-08-14T11:48:12.584Z,5.50
2022-08-14T11:53:21.166Z,6.20
2022-08-14T11:58:30.758Z,5.10
2022-08-14T12:03:51.200Z,4.30
2022-08-14T12:08:56.165Z,6.40
2022-08-14T12:14:13.333Z,5.50
2022-08-14T12:19:56.729Z,8.00
2022-08-14T12:25:00.713Z,6.70
2022-08-14T12:30:05.733Z,7.00
2022-08-14T12:35:09.691Z,9.60
2022-08-14T12:40:15.559Z,7.30
2022-08-14T12:45:33.927Z,7.50
2022-08-14T12:50:42.110Z,6.30
2022-08-14T12:56:22.512Z,7.40
2022-08-14T13:01:31.241Z,8.90
2022-08-14T13:06:37.643Z,10.40
2022-08-14T13:11:58.409Z,9.60
2022-08-14T13:17:03.045Z,13.70
2022-08-14T13:22:10.102Z,10.50
2022-08-14T13:27:28.294Z,12.00
2022-08-14T13:32:44.488Z,13.60
2022-08-14T13:37:53.475Z,10.60
2022-08-14T13:43:02.224Z,11.60
2022-08-14T13:48:04.611Z,10.40
2022-08-14T13:53:12.962Z,11.90
2022-08-14T13:58:33.735Z,10.70
2022-08-14T14:03:39.431Z,11.50
2022-08-14T14:08:50.067Z,10.90
2022-08-14T14:14:00.386Z,11.50
2022-08-14T14:19:09.160Z,11.00
2022-08-14T14:24:15.441Z,11.50
2022-08-14T14:29:24.112Z,10.80
2022-08-14T14:34:32.985Z,10.60
2022-08-14T14:40:54.524Z,11.20
2022-08-14T14:45:15.567Z,11.20
2022-08-14T14:50:20.812Z,11.70
2022-08-14T14:55:54.313Z,13.70
2022-08-14T15:00:55.143Z,11.40
2022-08-14T15:05:58.556Z,12.60
2022-08-14T15:11:00.782Z,11.30
2022-08-14T15:16:04.199Z,11.60
2022-08-14T15:21:08.566Z,11.30
2022-08-14T15:26:24.189Z,11.10
2022-08-14T15:31:36.320Z,10.90
2022-08-14T15:36:43.924Z,11.10
2022-08-14T15:41:48.545Z,11.30
2022-08-14T15:46:54.519Z,11.10
2022-08-14T15:51:59.341Z,10.40
2022-08-14T15:57:08.792Z,9.10
2022-08-14T16:02:10.869Z,7.10
2022-08-14T16:07:14.352Z,7.80
2022-08-14T16:12:19.112Z,8.00
2022-08-14T16:17:22.593Z,7.70
2022-08-14T16:22:58.639Z,9.00
2022-08-14T16:27:54.862Z,7.40
2022-08-14T16:38:45.395Z,4.90
2022-08-14T16:43:54.120Z,4.60
2022-08-14T16:49:06.877Z,3.90
2022-08-14T16:54:34.149Z,4.20
2022-08-14T16:59:52.709Z,5.00
2022-08-14T17:05:24.316Z,5.40
2022-08-14T17:10:28.283Z,6.30
2022-08-14T17:15:31.096Z,6.30
2022-08-14T17:20:53.357Z,5.10
2022-08-14T17:25:58.775Z,5.10
2022-08-14T17:31:03.044Z,7.40
2022-08-14T17:36:23.101Z,6.20
2022-08-14T17:41:35.951Z,6.20
2022-08-14T17:46:43.326Z,6.50
2022-08-14T17:52:01.330Z,12.00
2022-08-14T17:57:10.515Z,7.50
2022-08-14T18:02:22.082Z,7.40
2022-08-14T18:08:00.093Z,7.30
2022-08-14T18:12:47.074Z,7.30
2022-08-14T18:17:54.000Z,7.90
2022-08-14T18:22:57.233Z,9.20
2022-08-14T18:28:01.515Z,8.10
2022-08-14T18:33:23.186Z,9.50
2022-08-14T18:39:00.096Z,8.20
2022-08-14T18:44:02.873Z,10.20
2022-08-14T18:49:17.343Z,8.40
2022-08-14T18:54:32.769Z,13.50
2022-08-14T18:59:39.090Z,9.60
2022-08-14T19:04:43.090Z,10.30
2022-08-14T19:09:58.582Z,10.00
2022-08-14T19:15:08.684Z,8.40
2022-08-14T19:20:12.145Z,9.00
2022-08-14T19:25:47.423Z,8.70
2022-08-14T19:31:37.345Z,9.20
2022-08-14T19:37:05.168Z,8.20
2022-08-14T19:42:14.055Z,9.00
2022-08-14T19:47:49.806Z,8.20
2022-08-14T19:53:16.727Z,8.30
2022-08-14T19:58:28.039Z,8.80
2022-08-14T20:11:03.513Z,12.00
2022-08-14T20:14:30.519Z,10.10
2022-08-14T20:19:34.615Z,9.60
2022-08-14T20:24:44.836Z,8.80
2022-08-14T20:30:34.162Z,10.20
2022-08-14T20:35:55.688Z,10.10
2022-08-14T20:41:23.079Z,10.30
2022-08-14T20:46:42.453Z,8.90
2022-08-14T20:52:19.077Z,9.40
2022-08-14T20:57:54.949Z,9.10
2022-08-14T21:04:04.966Z,11.30
2022-08-14T21:10:04.907Z,9.40
2022-08-14T21:15:27.545Z,12.50
2022-08-14T21:20:42.309Z,10.40
2022-08-14T21:25:44.494Z,11.40
2022-08-14T21:31:18.532Z,12.70
2022-08-14T21:36:47.230Z,12.10
2022-08-14T21:41:58.401Z,12.80
2022-08-14T21:47:00.824Z,13.10
2022-08-14T21:52:52.226Z,13.70
2022-08-14T21:58:46.358Z,11.50
2022-08-14T22:03:55.339Z,11.90
2022-08-14T22:08:59.791Z,13.90
2022-08-14T22:14:25.490Z,11.10
2022-08-14T22:19:47.429Z,13.10
2022-08-14T22:25:01.030Z,12.10
2022-08-14T22:30:13.122Z,13.50
2022-08-14T22:35:16.005Z,16.40
2022-08-14T22:41:02.239Z,14.10
2022-08-14T22:45:55.512Z,13.40
2022-08-14T22:51:03.436Z,14.30
2022-08-14T22:56:20.511Z,15.70
2022-08-14T23:01:57.131Z,14.60
2022-08-14T23:08:59.940Z,12.90
2022-08-14T23:12:54.657Z,14.50
2022-08-14T23:18:03.657Z,17.00
2022-08-14T23:23:22.941Z,17.20
2022-08-14T23:28:34.218Z,15.90
2022-08-14T23:33:52.032Z,16.10
2022-08-14T23:38:56.721Z,14.60
2022-08-14T23:43:58.760Z,14.20
2022-08-14T23:49:01.935Z,12.10
2022-08-14T23:54:05.385Z,12.10
2022-08-14T23:59:27.418Z,15.60
